• Join FlightAware (Why Join?)
  • Login
  • US Flag 
09:49PM EDT


 

Airport Tracker/Info


-or-


 

Live Flight TrackerFlight Track Log ✈ AAR8735 ✈ 28-Nov-2013 ✈ RKSS / GMP - RKJY / RSU

Flight Track Log - Related Links

Times and Time Zones

All times are in EST time to prevent confusion due to time zone crossing. See the AAR8735 flight status page for this flight to view local times or setup timezone preferences in your user account.

Time Position Orientation Groundspeed Altitude Reporting Facility
EST Latitude Longitude Course Direction KTS MPH feet Rate Location/Type
01:09AM 37.3182 126.8659 166° South  Level Estimated
01:10AM 37.2381 126.8909 166° South  Level Estimated
01:11AM 37.1580 126.9158 166° South  Level Estimated
01:12AM 37.0780 126.9407 166° South  Level Estimated
01:13AM 36.9979 126.9655 166° South  Level Estimated
01:14AM 36.9178 126.9903 166° South  Level Estimated
01:15AM 36.8377 127.0150 166° South  Level Estimated
01:16AM 36.7576 127.0397 166° South  Level Estimated
01:17AM 36.6775 127.0643 166° South  Level Estimated
01:18AM 36.5974 127.0889 166° South  Level Estimated
01:19AM 36.5173 127.1134 166° South  Level Estimated
01:20AM 36.4372 127.1379 166° South  Level Estimated
01:21AM 36.3571 127.1623 166° South  Level Estimated
01:22AM 36.2770 127.1867 166° South  Level Estimated
01:23AM 36.1968 127.2110 166° South  Level Estimated
01:24AM 36.1167 127.2353 166° South  Level Estimated
01:25AM 36.0366 127.2595 166° South  Level Estimated
01:26AM 35.9564 127.2837 166° South  Level Estimated
01:27AM 35.8763 127.3078 166° South  Level Estimated
01:28AM 35.7961 127.3319 166° South  Level Estimated
01:29AM 35.7160 127.3559 166° South  Level Estimated
01:30AM 35.6358 127.3799 166° South  Level Estimated
01:31AM 35.5556 127.4038 166° South  Level Estimated
01:32AM 35.4755 127.4277 166° South  Level Estimated
01:33AM 35.3953 127.4515 166° South  Level Estimated
01:34AM 35.3151 127.4753 166° South  Level Estimated
01:35AM 35.2349 127.4990 166° South  Level Estimated
01:36AM 35.1547 127.5227 166° South  Level Estimated
01:37AM 35.0745 127.5464 166° South  Level Estimated
01:38AM 34.9943 127.5700 166° South  Level Estimated
01:39AM 34.9141 127.5935 166° South  Level Estimated
01:40AM 34.8398 127.6153 166° South  Level Estimated
01:41AM 34.8398 127.6153 180° South  Level Estimated
01:42AM 34.8398 127.6153 180° South  Level Estimated
01:43AM 34.8398 127.6153 180° South  Level Estimated
01:44AM 34.8398 127.6153 180° South  Level Estimated
01:45AM 34.8398 127.6153 180° South  Level Estimated
01:46AM 34.8398 127.6153 180° South  Level Estimated
01:47AM 34.8398 127.6153 180° South  Level Estimated
01:48AM 34.8398 127.6153 180° South  Level Estimated
01:49AM 34.8398 127.6153 180° South  Level Estimated
01:50AM 34.8398 127.6153 180° South  Level Estimated
01:51AM 34.8398 127.6153 180° South  Level Estimated
01:52AM 34.8398 127.6153 180° South  Level Estimated
01:53AM 34.8398 127.6153 180° South  Level Estimated
01:54AM 34.8398 127.6153 180° South  Level Estimated
01:55AM 34.8398 127.6153 180° South  Level Estimated
01:56AM 34.8398 127.6153 180° South  Level Estimated